Time;durP1;ratioP1;P1;durP2;ratioP2;P2;SDS_P1;SDS_P2;PMS_P1;PMS_P2;Temp;Humidity;BMP_temperature;BMP_pressure;BME280_temperature;BME280_humidity;BME280_pressure;Samples;Min_cycle;Max_cycle;Signal;HPM_P1;HPM_P2
2022/08/30 00:02:54;;;;;;;15.40;10.80;;;28.20;68.00;;;;;;5094432;28;20449;-77
2022/08/30 00:05:19;;;;;;;15.23;9.88;;;28.30;67.80;;;;;;5094090;28;20032;-77
2022/08/30 00:07:45;;;;;;;13.82;8.82;;;28.30;67.70;;;;;;5076142;28;20025;-77
2022/08/30 00:10:11;;;;;;;17.98;10.02;;;28.30;67.70;;;;;;5094070;28;20077;-77
2022/08/30 00:12:37;;;;;;;12.63;10.07;;;28.20;67.80;;;;;;5075718;28;20031;-78
2022/08/30 00:15:05;;;;;;;18.38;10.48;;;28.20;67.70;;;;;;5075651;28;20536;-76
2022/08/30 00:17:31;;;;;;;15.10;9.95;;;28.20;68.20;;;;;;5075570;28;20441;-87
2022/08/30 00:19:57;;;;;;;15.60;9.00;;;28.30;67.90;;;;;;5075678;28;20489;-76
2022/08/30 00:22:23;;;;;;;15.48;11.00;;;28.00;68.80;;;;;;5074709;28;20114;-77
2022/08/30 00:24:48;;;;;;;16.98;9.70;;;28.10;68.50;;;;;;5093371;28;20527;-81
2022/08/30 00:27:14;;;;;;;17.73;11.50;;;28.20;68.10;;;;;;5093628;28;20024;-76
2022/08/30 00:29:40;;;;;;;12.95;9.70;;;28.30;67.50;;;;;;5093507;28;20522;-76
2022/08/30 00:32:06;;;;;;;17.08;10.40;;;28.30;67.30;;;;;;5093565;28;20031;-77
2022/08/30 00:34:33;;;;;;;13.73;9.90;;;28.30;67.00;;;;;;5075368;28;20475;-83
2022/08/30 00:36:59;;;;;;;13.38;9.15;;;28.30;67.00;;;;;;5075705;28;20040;-78
2022/08/30 00:39:25;;;;;;;17.52;10.27;;;28.20;66.90;;;;;;5075268;28;20024;-87
2022/08/30 00:41:50;;;;;;;12.98;9.25;;;28.20;67.00;;;;;;5093423;28;20463;-76
2022/08/30 00:44:16;;;;;;;12.85;10.05;;;28.10;66.90;;;;;;5075322;28;20027;-77
2022/08/30 00:46:42;;;;;;;16.85;10.73;;;28.10;66.90;;;;;;5093030;28;20031;-76
2022/08/30 00:49:11;;;;;;;12.30;8.23;;;28.00;67.30;;;;;;5093031;28;20073;-76
2022/08/30 00:51:39;;;;;;;15.80;11.00;;;27.90;68.10;;;;;;5093510;28;20023;-76
2022/08/30 00:54:05;;;;;;;10.20;9.05;;;27.60;69.50;;;;;;5074870;28;20028;-76
2022/08/30 00:56:32;;;;;;;11.90;8.88;;;27.50;69.50;;;;;;5075410;28;20035;-75
2022/08/30 00:59:00;;;;;;;16.38;8.85;;;27.40;70.20;;;;;;5075240;28;20467;-83
2022/08/30 01:01:28;;;;;;;12.65;9.55;;;27.50;69.70;;;;;;5092691;28;20035;-81
2022/08/30 01:03:53;;;;;;;19.13;9.80;;;27.70;68.90;;;;;;5093165;28;20039;-80
2022/08/30 01:06:20;;;;;;;16.77;10.68;;;27.90;68.40;;;;;;5075096;28;20024;-81
2022/08/30 01:08:46;;;;;;;11.82;7.38;;;27.90;67.80;;;;;;5074954;28;20028;-77
2022/08/30 01:11:15;;;;;;;11.55;8.50;;;27.80;68.10;;;;;;5093107;28;20020;-86
2022/08/30 01:13:42;;;;;;;14.15;9.70;;;27.50;69.40;;;;;;5074964;28;20066;-76
2022/08/30 01:16:09;;;;;;;15.00;10.27;;;27.40;70.00;;;;;;5092677;28;20482;-76
2022/08/30 01:18:35;;;;;;;17.33;11.00;;;27.50;69.20;;;;;;5074517;28;20036;-76
2022/08/30 01:21:15;;;;;;;15.65;9.38;;;27.70;68.50;;;;;;5075115;28;20024;-81
2022/08/30 01:23:44;;;;;;;15.00;7.50;;;27.70;68.30;;;;;;5074576;28;20066;-78
2022/08/30 01:26:11;;;;;;;18.48;10.32;;;27.70;68.10;;;;;;5092925;28;20423;-76
2022/08/30 01:28:39;;;;;;;11.05;8.75;;;27.40;69.40;;;;;;5092324;28;20056;-75
2022/08/30 01:31:05;;;;;;;12.23;9.65;;;27.40;68.80;;;;;;5074698;28;20071;-78
2022/08/30 01:33:30;;;;;;;12.27;9.10;;;27.60;68.10;;;;;;5095270;28;20043;-75
2022/08/30 01:36:06;;;;;;;11.48;8.70;;;27.60;67.80;;;;;;5096633;28;20042;-76
2022/08/30 01:38:51;;;;;;;18.88;11.68;;;27.60;68.80;;;;;;5096976;28;20020;-76
2022/08/30 01:41:22;;;;;;;11.23;7.93;;;27.60;68.40;;;;;;5078323;28;20078;-76
2022/08/30 01:43:50;;;;;;;15.15;9.82;;;27.50;69.20;;;;;;5096713;28;20028;-76
2022/08/30 01:46:18;;;;;;;13.65;9.00;;;27.30;69.10;;;;;;5096801;28;20024;-76
2022/08/30 01:48:44;;;;;;;13.27;9.70;;;27.40;68.70;;;;;;5096537;28;20028;-76
2022/08/30 01:51:12;;;;;;;14.93;10.68;;;27.50;68.60;;;;;;5078999;28;20020;-75
2022/08/30 01:53:40;;;;;;;12.70;8.75;;;27.60;68.00;;;;;;5096549;28;20052;-76
2022/08/30 01:56:06;;;;;;;12.45;10.07;;;27.50;68.90;;;;;;5096491;28;20035;-77
2022/08/30 01:58:34;;;;;;;17.52;9.98;;;27.20;69.80;;;;;;5078379;28;20032;-77
2022/08/30 02:00:59;;;;;;;18.67;9.07;;;27.30;68.70;;;;;;5078521;28;20021;-77
2022/08/30 02:03:29;;;;;;;15.38;9.07;;;27.20;68.70;;;;;;5096462;28;20028;-76
2022/08/30 02:05:55;;;;;;;15.10;10.25;;;27.30;68.20;;;;;;5096403;28;20370;-76
2022/08/30 02:08:21;;;;;;;16.20;11.00;;;27.50;67.70;;;;;;5096372;28;20070;-76
2022/08/30 02:10:46;;;;;;;18.38;11.40;;;27.60;67.40;;;;;;5096088;28;20020;-86
2022/08/30 02:13:12;;;;;;;8.82;7.93;;;27.60;67.10;;;;;;5095995;28;20459;-77
2022/08/30 02:15:38;;;;;;;15.13;10.48;;;27.50;68.00;;;;;;5095630;28;20050;-77
2022/08/30 02:18:03;;;;;;;13.52;10.73;;;27.40;68.20;;;;;;5077677;28;20040;-76
2022/08/30 02:20:29;;;;;;;16.45;11.35;;;27.50;67.70;;;;;;5077786;28;20475;-76
2022/08/30 02:22:55;;;;;;;15.38;11.15;;;27.60;67.40;;;;;;5096173;28;20028;-77
2022/08/30 02:25:20;;;;;;;15.27;10.63;;;27.60;67.40;;;;;;5096116;28;20510;-76
2022/08/30 02:27:46;;;;;;;16.60;11.93;;;27.70;67.30;;;;;;5095633;28;20085;-77
2022/08/30 02:30:12;;;;;;;15.35;11.05;;;27.70;67.20;;;;;;5096075;28;20028;-76
2022/08/30 02:32:38;;;;;;;17.88;11.00;;;27.70;67.30;;;;;;5095810;28;20023;-82
2022/08/30 02:35:04;;;;;;;14.40;10.55;;;27.70;67.30;;;;;;5077655;28;20081;-76
2022/08/30 02:37:30;;;;;;;13.82;10.40;;;27.80;67.20;;;;;;5095758;28;20154;-76
2022/08/30 02:39:55;;;;;;;16.50;10.07;;;27.50;68.60;;;;;;5077632;28;20111;-77
2022/08/30 02:42:21;;;;;;;14.68;9.88;;;27.50;68.10;;;;;;5095243;28;20040;-76
2022/08/30 02:44:47;;;;;;;14.27;10.40;;;27.50;67.80;;;;;;5095138;28;20020;-76
2022/08/30 02:47:12;;;;;;;13.43;10.25;;;27.50;67.80;;;;;;5077397;28;20024;-76
2022/08/30 02:49:38;;;;;;;15.30;9.82;;;27.60;67.40;;;;;;5095622;28;20020;-77
2022/08/30 02:52:04;;;;;;;15.52;10.95;;;27.60;67.30;;;;;;5077397;28;20471;-79
2022/08/30 02:54:31;;;;;;;17.02;11.05;;;27.60;67.10;;;;;;5095403;28;20065;-76
2022/08/30 02:56:57;;;;;;;13.00;9.90;;;27.60;67.00;;;;;;5095475;28;20028;-86
2022/08/30 02:59:23;;;;;;;17.63;10.32;;;27.60;67.00;;;;;;5095181;28;20390;-77
2022/08/30 03:01:49;;;;;;;17.55;10.93;;;27.50;66.80;;;;;;5095475;28;20032;-77
2022/08/30 03:04:15;;;;;;;18.55;12.07;;;27.50;66.80;;;;;;5095256;28;20031;-76
2022/08/30 03:06:40;;;;;;;18.33;12.48;;;27.50;67.20;;;;;;5076745;28;20455;-82
2022/08/30 03:09:06;;;;;;;18.30;12.20;;;27.50;67.10;;;;;;5077013;28;20027;-75
2022/08/30 03:11:33;;;;;;;21.02;12.38;;;27.60;67.40;;;;;;5094845;28;20089;-76
2022/08/30 03:13:59;;;;;;;15.23;10.45;;;27.60;67.40;;;;;;5095067;28;20023;-76
2022/08/30 03:16:25;;;;;;;11.95;9.15;;;27.60;67.10;;;;;;5094648;28;20372;-76
2022/08/30 03:18:51;;;;;;;14.70;10.52;;;27.50;68.00;;;;;;5076985;28;20046;-81
2022/08/30 03:21:17;;;;;;;14.27;10.82;;;27.40;68.10;;;;;;5095056;28;20353;-76
2022/08/30 03:23:43;;;;;;;18.98;11.18;;;27.40;68.30;;;;;;5094635;28;20070;-82
2022/08/30 03:26:11;;;;;;;19.42;11.45;;;27.40;67.20;;;;;;5095038;28;20016;-76
2022/08/30 03:28:37;;;;;;;15.38;10.15;;;27.50;66.90;;;;;;5076708;28;20028;-75
2022/08/30 03:31:04;;;;;;;18.45;10.98;;;27.50;66.60;;;;;;5096068;28;20325;-76
2022/08/30 03:33:30;;;;;;;13.88;9.75;;;27.50;66.40;;;;;;5076500;28;20032;-76
2022/08/30 03:35:55;;;;;;;16.10;9.50;;;27.50;66.40;;;;;;5094501;28;20390;-76
2022/08/30 03:38:21;;;;;;;14.23;10.15;;;27.20;67.90;;;;;;5094246;28;20474;-76
2022/08/30 03:40:47;;;;;;;16.92;9.80;;;27.20;67.40;;;;;;5094152;28;20019;-75
2022/08/30 03:43:12;;;;;;;18.45;10.35;;;27.20;66.90;;;;;;5094094;28;20070;-76
2022/08/30 03:45:38;;;;;;;12.18;9.40;;;27.30;66.70;;;;;;5093680;28;20028;-76
2022/08/30 03:48:04;;;;;;;16.35;10.82;;;27.20;66.50;;;;;;5076309;28;20030;-79
2022/08/30 03:50:30;;;;;;;15.60;9.95;;;27.10;67.30;;;;;;5076790;28;20025;-76
2022/08/30 03:52:56;;;;;;;16.13;10.90;;;27.10;67.40;;;;;;5076620;28;20043;-86
2022/08/30 03:55:22;;;;;;;20.35;10.32;;;27.30;67.10;;;;;;5094452;28;20463;-79
2022/08/30 03:57:48;;;;;;;13.25;10.82;;;27.40;66.80;;;;;;5094165;28;20032;-86
2022/08/30 04:00:15;;;;;;;13.80;10.43;;;27.40;66.80;;;;;;5076114;28;20046;-83
2022/08/30 04:02:41;;;;;;;16.92;11.43;;;27.50;66.80;;;;;;5094440;28;20028;-79
2022/08/30 04:05:09;;;;;;;16.48;11.43;;;27.50;66.60;;;;;;5075826;28;20031;-85
2022/08/30 04:07:35;;;;;;;17.80;10.90;;;27.60;66.40;;;;;;5093923;28;20051;-75
2022/08/30 04:10:01;;;;;;;17.33;10.80;;;27.60;66.30;;;;;;5093968;28;20103;-85
2022/08/30 04:12:26;;;;;;;17.40;12.63;;;27.60;66.30;;;;;;5075875;28;20043;-87
2022/08/30 04:14:52;;;;;;;14.82;10.68;;;27.60;66.40;;;;;;5094103;28;20387;-79
2022/08/30 04:17:18;;;;;;;16.17;11.15;;;27.60;67.10;;;;;;5093370;28;20173;-82
2022/08/30 04:19:44;;;;;;;21.20;12.85;;;27.60;67.00;;;;;;5076022;28;20059;-85
2022/08/30 04:22:09;;;;;;;16.98;10.48;;;27.60;67.00;;;;;;5093693;28;20024;-76
2022/08/30 04:24:37;;;;;;;15.20;10.27;;;27.70;67.20;;;;;;5075710;28;20537;-76
2022/08/30 04:27:03;;;;;;;20.00;12.63;;;27.70;67.20;;;;;;5075399;28;20024;-76
2022/08/30 04:29:28;;;;;;;18.85;11.13;;;27.70;67.30;;;;;;5093039;28;20024;-75
2022/08/30 04:31:54;;;;;;;14.15;10.25;;;27.60;67.70;;;;;;5093407;28;20047;-77
2022/08/30 04:34:20;;;;;;;17.55;11.57;;;27.60;68.00;;;;;;5093583;28;20028;-76
2022/08/30 04:36:48;;;;;;;19.15;12.40;;;27.60;68.00;;;;;;5075134;28;20367;-76
2022/08/30 04:39:14;;;;;;;20.10;11.10;;;27.60;68.40;;;;;;5093300;28;20032;-76
2022/08/30 04:41:39;;;;;;;19.23;11.98;;;27.60;68.30;;;;;;5093868;28;20038;-82
2022/08/30 04:44:06;;;;;;;18.98;12.55;;;27.70;68.30;;;;;;5075128;28;20387;-76
2022/08/30 04:46:36;;;;;;;15.50;12.07;;;27.90;68.20;;;;;;5075286;28;20455;-76
2022/08/30 04:49:03;;;;;;;15.93;10.55;;;28.00;68.60;;;;;;5069437;28;20400;-82
2022/08/30 04:51:29;;;;;;;18.77;13.00;;;28.00;68.00;;;;;;5075504;28;20512;-85
2022/08/30 04:53:55;;;;;;;15.10;10.35;;;28.00;68.10;;;;;;5093205;28;20028;-82
2022/08/30 04:56:23;;;;;;;17.30;11.52;;;28.00;68.20;;;;;;5093505;28;20035;-76
2022/08/30 04:58:51;;;;;;;17.10;12.43;;;27.80;69.10;;;;;;5075250;28;20073;-83
2022/08/30 05:01:24;;;;;;;16.60;12.18;;;27.80;69.30;;;;;;5092785;28;20038;-83
2022/08/30 05:03:51;;;;;;;16.20;12.20;;;28.10;68.80;;;;;;5093114;28;20111;-81
2022/08/30 05:06:17;;;;;;;17.33;12.23;;;28.10;68.60;;;;;;5074655;28;20023;-76
2022/08/30 05:08:44;;;;;;;19.23;11.15;;;28.30;68.40;;;;;;5074741;28;20028;-77
2022/08/30 05:11:10;;;;;;;15.75;11.15;;;28.40;68.30;;;;;;5075005;28;20020;-77
2022/08/30 05:13:36;;;;;;;17.10;11.50;;;28.50;68.00;;;;;;5074890;28;20032;-77
2022/08/30 05:16:04;;;;;;;13.25;9.63;;;28.50;67.40;;;;;;5092513;28;20495;-76
2022/08/30 05:18:32;;;;;;;18.70;11.17;;;28.10;68.60;;;;;;5093337;28;20043;-79
2022/08/30 05:21:08;;;;;;;17.13;11.68;;;28.10;68.70;;;;;;5093169;28;20020;-76
2022/08/30 05:23:35;;;;;;;18.05;12.45;;;28.20;68.40;;;;;;5092925;28;20330;-88
2022/08/30 05:26:10;;;;;;;20.65;11.98;;;28.40;68.50;;;;;;5093183;28;20028;-79
2022/08/30 05:28:36;;;;;;;16.75;11.68;;;28.50;68.40;;;;;;5092803;28;20028;-76
2022/08/30 05:31:10;;;;;;;15.68;10.90;;;28.50;69.00;;;;;;5074967;28;20032;-79
2022/08/30 05:33:36;;;;;;;12.95;10.80;;;28.60;68.60;;;;;;5074857;28;20016;-79
2022/08/30 05:36:05;;;;;;;16.83;10.98;;;28.70;68.40;;;;;;5092729;28;20039;-84
2022/08/30 05:38:31;;;;;;;13.70;10.50;;;28.80;68.40;;;;;;5093182;28;20391;-83
2022/08/30 05:40:56;;;;;;;15.25;11.05;;;28.90;68.40;;;;;;5093036;28;20423;-77
2022/08/30 05:43:22;;;;;;;11.93;10.07;;;28.90;68.10;;;;;;5092679;28;20055;-85
2022/08/30 05:45:56;;;;;;;15.60;11.57;;;28.90;68.40;;;;;;5075194;28;20032;-83
2022/08/30 05:48:22;;;;;;;13.20;9.57;;;28.90;68.00;;;;;;5074947;28;20024;-79
2022/08/30 05:50:47;;;;;;;11.00;9.10;;;29.00;67.90;;;;;;5074828;28;20382;-89
2022/08/30 05:53:13;;;;;;;14.23;11.07;;;29.00;68.00;;;;;;5093040;28;20029;-86
2022/08/30 05:55:40;;;;;;;14.88;8.98;;;28.90;68.40;;;;;;5075133;28;20027;-82
2022/08/30 05:58:06;;;;;;;14.75;9.88;;;29.00;68.40;;;;;;5074705;28;20047;-85
2022/08/30 06:00:32;;;;;;;15.95;9.32;;;29.10;67.90;;;;;;5074959;28;20024;-83
2022/08/30 06:02:57;;;;;;;13.55;9.13;;;29.10;67.60;;;;;;5093185;28;20020;-86
2022/08/30 06:05:23;;;;;;;14.55;9.93;;;29.10;67.70;;;;;;5074529;28;20376;-80
2022/08/30 06:07:49;;;;;;;18.25;11.60;;;29.30;67.50;;;;;;5074862;28;20024;-85
2022/08/30 06:10:14;;;;;;;14.40;9.57;;;29.40;67.60;;;;;;5093182;28;20028;-82
2022/08/30 06:12:40;;;;;;;12.25;9.60;;;29.40;67.10;;;;;;5074788;28;20032;-84
2022/08/30 06:15:06;;;;;;;15.50;10.60;;;29.50;67.40;;;;;;5092526;28;20616;-82
2022/08/30 06:17:32;;;;;;;11.55;9.60;;;29.60;67.40;;;;;;5074943;28;20130;-85
2022/08/30 06:19:58;;;;;;;11.32;9.73;;;29.80;67.50;;;;;;5076576;28;20073;-88
2022/08/30 06:22:23;;;;;;;13.10;9.55;;;29.80;67.20;;;;;;5096728;28;20058;-86
2022/08/30 06:24:49;;;;;;;14.23;10.02;;;29.90;67.10;;;;;;5096950;28;20024;-89
2022/08/30 06:27:15;;;;;;;11.75;9.35;;;30.00;67.10;;;;;;5078903;28;20028;-90
2022/08/30 06:29:40;;;;;;;10.52;8.10;;;30.10;67.00;;;;;;5078812;28;20020;-90
2022/08/30 06:32:06;;;;;;;14.00;10.10;;;30.20;66.50;;;;;;5078758;28;20021;-91
2022/08/30 06:34:32;;;;;;;14.98;10.52;;;30.10;66.80;;;;;;5078415;28;20032;-91
2022/08/30 06:36:57;;;;;;;12.00;9.90;;;30.10;67.20;;;;;;5078543;28;20024;-91
2022/08/30 06:39:23;;;;;;;11.68;9.25;;;30.10;67.20;;;;;;5078499;28;20467;-92
2022/08/30 06:41:49;;;;;;;12.00;9.75;;;30.20;67.20;;;;;;5096743;28;20057;-92
2022/08/30 06:44:15;;;;;;;14.77;10.20;;;30.30;66.90;;;;;;5078207;28;20111;-92
2022/08/30 06:46:41;;;;;;;14.82;9.43;;;30.40;67.30;;;;;;5078487;28;20077;-91
2022/08/30 06:49:24;;;;;;;11.25;9.82;;;30.50;66.90;;;;;;5078688;28;20028;-93
2022/08/30 06:51:52;;;;;;;14.32;9.55;;;30.70;66.90;;;;;;5077999;28;20115;-90
2022/08/30 06:54:18;;;;;;;11.07;7.90;;;30.80;67.10;;;;;;5078668;28;20024;-85
2022/08/30 06:56:45;;;;;;;14.38;7.97;;;30.70;66.40;;;;;;5078243;28;20047;-86
2022/08/30 06:59:10;;;;;;;13.25;8.10;;;30.40;66.90;;;;;;5078170;28;20020;-85
2022/08/30 07:01:36;;;;;;;11.82;8.77;;;29.80;68.30;;;;;;5078024;28;20028;-85
2022/08/30 07:04:03;;;;;;;11.98;9.60;;;29.90;69.30;;;;;;5077833;28;20028;-83
2022/08/30 07:06:29;;;;;;;10.38;8.38;;;30.30;68.10;;;;;;5077585;28;20024;-81
2022/08/30 07:08:55;;;;;;;13.60;8.70;;;30.50;65.80;;;;;;5077284;28;20093;-80
2022/08/30 07:11:32;;;;;;;10.60;8.50;;;30.70;64.80;;;;;;5095392;28;20022;-80
2022/08/30 07:13:58;;;;;;;11.10;8.38;;;30.80;64.60;;;;;;5094985;28;20055;-80
2022/08/30 07:16:24;;;;;;;10.90;8.32;;;31.00;64.70;;;;;;5094855;28;20051;-79
2022/08/30 07:18:49;;;;;;;10.40;8.32;;;31.10;64.80;;;;;;5076945;28;20036;-81
2022/08/30 07:21:18;;;;;;;9.23;7.63;;;31.30;64.10;;;;;;5094744;28;20094;-79
2022/08/30 07:23:47;;;;;;;9.80;8.48;;;31.30;64.20;;;;;;5076796;28;20118;-79
2022/08/30 07:26:18;;;;;;;12.95;8.70;;;31.20;64.40;;;;;;5076958;28;20028;-79
2022/08/30 07:28:45;;;;;;;10.00;8.88;;;31.40;64.90;;;;;;5094712;28;20078;-79
2022/08/30 07:31:14;;;;;;;9.52;7.68;;;31.50;64.50;;;;;;5076389;28;20574;-79
2022/08/30 07:33:40;;;;;;;10.98;8.75;;;31.60;64.00;;;;;;5076528;28;20078;-79
2022/08/30 07:36:06;;;;;;;10.10;7.43;;;31.70;64.00;;;;;;5094545;28;20032;-79
2022/08/30 07:38:32;;;;;;;8.55;7.65;;;31.30;64.10;;;;;;5094725;28;20382;-79
2022/08/30 07:41:00;;;;;;;11.95;8.52;;;31.00;64.40;;;;;;5094509;28;20028;-78
2022/08/30 07:43:27;;;;;;;8.70;7.22;;;30.80;65.60;;;;;;5076351;28;20034;-78
2022/08/30 07:45:53;;;;;;;8.40;7.40;;;30.50;66.40;;;;;;5094508;28;20020;-79
2022/08/30 07:48:18;;;;;;;12.02;7.40;;;30.30;66.20;;;;;;5076386;28;20031;-80
2022/08/30 07:50:45;;;;;;;9.25;7.57;;;30.50;66.80;;;;;;5076260;28;20031;-80
2022/08/30 07:53:11;;;;;;;11.40;7.75;;;30.60;65.80;;;;;;5094267;28;20020;-80
2022/08/30 07:55:38;;;;;;;9.50;7.45;;;30.80;65.60;;;;;;5076237;28;20031;-80
2022/08/30 07:58:04;;;;;;;9.95;8.15;;;30.40;65.90;;;;;;5075987;28;20477;-83
2022/08/30 08:00:29;;;;;;;9.75;7.13;;;30.60;66.30;;;;;;5076584;28;20523;-81
2022/08/30 08:02:55;;;;;;;11.43;7.28;;;30.10;65.80;;;;;;5076820;28;20542;-86
2022/08/30 08:05:21;;;;;;;10.75;8.25;;;30.10;67.40;;;;;;5094687;28;20020;-81
2022/08/30 08:07:47;;;;;;;12.38;7.90;;;30.10;66.90;;;;;;5076405;28;20024;-83
2022/08/30 08:10:13;;;;;;;9.07;7.88;;;30.40;65.80;;;;;;5094641;28;20035;-83
2022/08/30 08:12:39;;;;;;;10.45;8.55;;;30.80;65.00;;;;;;5076650;28;20463;-82
2022/08/30 08:15:06;;;;;;;9.68;8.07;;;31.10;65.00;;;;;;5076160;28;20032;-82
2022/08/30 08:17:32;;;;;;;9.27;8.27;;;31.10;65.20;;;;;;5076318;28;20073;-83
2022/08/30 08:19:57;;;;;;;11.13;8.18;;;31.30;64.70;;;;;;5076134;28;20016;-82
2022/08/30 08:22:23;;;;;;;11.82;8.32;;;31.60;65.40;;;;;;5076252;28;20028;-85
2022/08/30 08:24:49;;;;;;;9.20;7.95;;;31.70;64.70;;;;;;5094359;28;20016;-86
2022/08/30 08:27:15;;;;;;;9.35;7.18;;;31.80;63.90;;;;;;5094482;28;20051;-84
2022/08/30 08:29:41;;;;;;;10.45;7.53;;;31.80;63.50;;;;;;5075476;28;20024;-83
2022/08/30 08:32:06;;;;;;;9.82;7.47;;;31.60;64.50;;;;;;5075363;28;20031;-83
2022/08/30 08:34:34;;;;;;;8.90;8.00;;;31.70;64.80;;;;;;5094502;28;20659;-86
2022/08/30 08:36:59;;;;;;;10.20;7.47;;;32.00;64.70;;;;;;5075785;28;20040;-85
2022/08/30 08:39:25;;;;;;;10.63;6.75;;;32.30;64.10;;;;;;5094288;28;20069;-86
2022/08/30 08:42:02;;;;;;;14.45;7.93;;;32.30;63.20;;;;;;5075757;28;20024;-88
2022/08/30 08:44:38;;;;;;;10.27;7.75;;;32.30;63.00;;;;;;5076478;28;20016;-92
2022/08/30 08:47:39;;;;;;;8.73;7.05;;;32.30;61.50;;;;;;5076132;28;20085;-88
2022/08/30 08:50:12;;;;;;;9.00;7.10;;;32.30;62.50;;;;;;5076727;28;20035;-92
2022/08/30 08:53:35;;;;;;;9.68;7.00;;;32.30;62.80;;;;;;5076316;28;20497;-89
2022/08/30 08:56:09;;;;;;;10.45;6.80;;;32.60;61.40;;;;;;4976749;28;20042;-89
2022/08/30 08:58:50;;;;;;;9.45;7.15;;;32.60;61.90;;;;;;4976647;28;20049;-88
2022/08/30 09:01:19;;;;;;;11.73;7.57;;;32.80;61.60;;;;;;4992785;28;20137;-89
2022/08/30 09:03:45;;;;;;;9.43;7.50;;;33.00;60.50;;;;;;4976895;28;20035;-93
2022/08/30 09:06:48;;;;;;;10.13;7.63;;;33.10;60.20;;;;;;4992431;28;20034;-91
2022/08/30 09:09:15;;;;;;;9.73;7.18;;;33.10;58.60;;;;;;4976349;28;20026;-94
2022/08/30 09:11:41;;;;;;;8.10;6.90;;;33.30;59.20;;;;;;4992644;28;20034;-89
2022/08/30 09:14:23;;;;;;;8.98;7.03;;;33.30;58.60;;;;;;4976003;28;20121;-91
2022/08/30 09:17:01;;;;;;;9.02;6.60;;;33.40;58.10;;;;;;4976093;28;20053;-90
2022/08/30 09:19:58;;;;;;;8.95;7.07;;;33.40;59.40;;;;;;4976301;28;20057;-92
2022/08/30 09:22:31;;;;;;;9.52;6.88;;;33.50;58.70;;;;;;4975842;28;20022;-88
2022/08/30 09:25:12;;;;;;;8.82;7.15;;;33.60;58.50;;;;;;4976084;28;20077;-89
2022/08/30 09:27:40;;;;;;;7.60;6.50;;;33.70;58.60;;;;;;5070918;28;20033;-89
2022/08/30 09:30:18;;;;;;;9.10;6.72;;;33.60;57.80;;;;;;5072481;28;20356;-87
2022/08/30 09:32:53;;;;;;;11.55;6.43;;;33.70;58.80;;;;;;5072242;28;20040;-85
2022/08/30 09:35:25;;;;;;;8.98;6.95;;;33.70;58.50;;;;;;5072546;28;20041;-90
2022/08/30 09:38:09;;;;;;;9.88;6.93;;;33.80;58.30;;;;;;5072187;28;20119;-92
2022/08/30 09:40:45;;;;;;;9.27;6.95;;;33.90;58.60;;;;;;5072452;28;20421;-92
2022/08/30 09:43:24;;;;;;;8.40;7.10;;;34.10;58.50;;;;;;5072779;28;20555;-89
2022/08/30 09:46:10;;;;;;;8.13;6.40;;;34.10;57.00;;;;;;5072554;28;20031;-88
2022/08/30 09:48:39;;;;;;;8.55;6.38;;;34.10;56.40;;;;;;5071638;28;20119;-90
2022/08/30 09:51:11;;;;;;;8.13;6.18;;;34.10;57.50;;;;;;5072799;28;20021;-92
2022/08/30 09:54:06;;;;;;;7.35;6.55;;;34.00;56.20;;;;;;5074151;28;20021;-90
2022/08/30 09:56:53;;;;;;;8.57;6.53;;;33.80;57.40;;;;;;4979628;28;20636;-93
2022/08/30 09:59:34;;;;;;;9.38;6.60;;;34.00;57.80;;;;;;4979405;28;20497;-94
2022/08/30 10:02:26;;;;;;;8.80;6.55;;;33.90;56.50;;;;;;4979362;28;20049;-91
2022/08/30 10:04:59;;;;;;;9.07;6.40;;;33.90;57.70;;;;;;4937730;29;20046;-80
2022/08/30 10:07:33;;;;;;;8.07;6.28;;;34.20;58.50;;;;;;4937631;29;20036;-86
2022/08/30 10:10:08;;;;;;;9.05;6.68;;;34.20;57.10;;;;;;4937481;29;20078;-87
2022/08/30 10:13:10;;;;;;;7.32;6.40;;;34.30;56.90;;;;;;4937635;29;20047;-83
2022/08/30 10:15:54;;;;;;;9.82;6.68;;;34.50;56.70;;;;;;4921247;29;20035;-86
2022/08/30 10:18:49;;;;;;;10.50;6.57;;;34.90;56.10;;;;;;4937342;29;20126;-77
2022/08/30 10:21:24;;;;;;;9.35;7.18;;;35.10;55.00;;;;;;4883516;29;20441;-89
2022/08/30 10:24:02;;;;;;;8.43;6.78;;;35.10;55.00;;;;;;4899882;29;20560;-93
2022/08/30 10:26:37;;;;;;;7.80;7.05;;;35.20;55.70;;;;;;4883360;29;20033;-85
2022/08/30 10:29:15;;;;;;;8.00;6.45;;;35.10;55.60;;;;;;4899245;29;20045;-86
2022/08/30 10:32:01;;;;;;;8.23;6.03;;;35.00;54.60;;;;;;4899118;29;20039;-87
2022/08/30 10:34:40;;;;;;;8.88;6.38;;;34.90;55.70;;;;;;4974841;28;20086;-88
2022/08/30 10:37:10;;;;;;;7.43;5.70;;;34.90;55.80;;;;;;4975204;28;20043;-83
2022/08/30 10:39:53;;;;;;;8.15;5.60;;;35.00;55.80;;;;;;4975230;28;20027;-83
2022/08/30 10:42:25;;;;;;;6.35;5.68;;;34.90;54.20;;;;;;4984250;28;20081;-83
2022/08/30 10:45:02;;;;;;;7.70;6.32;;;34.90;55.30;;;;;;5014932;28;20473;-91
2022/08/30 10:47:40;;;;;;;7.28;5.70;;;35.10;54.70;;;;;;4997657;28;20097;-84
2022/08/30 10:50:15;;;;;;;6.60;5.78;;;35.20;54.80;;;;;;4997703;28;20018;-83
2022/08/30 10:53:05;;;;;;;6.30;5.57;;;35.20;54.40;;;;;;5014503;28;20481;-85
2022/08/30 10:55:52;;;;;;;7.38;5.78;;;34.90;53.20;;;;;;5014258;28;20396;-82
2022/08/30 10:58:18;;;;;;;7.00;5.60;;;34.80;54.20;;;;;;5037943;28;20040;-84
2022/08/30 11:01:11;;;;;;;7.35;6.05;;;34.90;55.30;;;;;;5074531;28;20021;-83
2022/08/30 11:03:51;;;;;;;6.47;5.60;;;35.50;54.40;;;;;;5074540;28;20537;-88
2022/08/30 11:06:42;;;;;;;7.80;5.80;;;35.60;53.30;;;;;;5073897;28;20028;-89
2022/08/30 11:09:33;;;;;;;7.28;6.20;;;35.60;54.80;;;;;;5074807;28;20024;-80
2022/08/30 11:12:26;;;;;;;8.50;5.72;;;35.20;53.00;;;;;;4993900;28;20058;-83
2022/08/30 11:14:53;;;;;;;9.05;5.95;;;34.60;53.80;;;;;;4978866;28;20046;-87
2022/08/30 11:17:24;;;;;;;6.75;5.45;;;34.60;55.80;;;;;;4977397;28;20050;-85
2022/08/30 11:20:23;;;;;;;6.70;5.30;;;34.20;54.00;;;;;;4994581;28;20031;-88
2022/08/30 11:23:28;;;;;;;7.00;6.00;;;34.20;54.50;;;;;;4996572;28;20034;-87
2022/08/30 11:25:59;;;;;;;7.18;5.38;;;34.20;54.30;;;;;;4994075;28;20034;-80
2022/08/30 11:28:37;;;;;;;6.35;5.63;;;34.30;54.70;;;;;;4977645;28;20026;-90
2022/08/30 11:31:31;;;;;;;6.13;5.40;;;34.10;53.70;;;;;;4979428;28;20489;-92
2022/08/30 11:33:58;;;;;;;7.97;5.30;;;34.20;55.00;;;;;;4978000;28;20045;-84
2022/08/30 11:36:31;;;;;;;7.45;5.57;;;34.40;55.30;;;;;;4994364;28;20042;-79
2022/08/30 11:38:59;;;;;;;6.63;5.30;;;34.60;53.80;;;;;;4977520;28;20030;-80
2022/08/30 11:41:37;;;;;;;5.97;5.30;;;34.80;53.80;;;;;;4993393;28;20161;-85
2022/08/30 11:44:21;;;;;;;7.18;5.70;;;34.70;53.40;;;;;;4977325;28;20041;-80
2022/08/30 11:46:54;;;;;;;6.28;5.20;;;34.60;53.60;;;;;;4977026;28;20113;-81
2022/08/30 11:49:34;;;;;;;6.55;5.82;;;34.30;52.50;;;;;;5045419;28;20045;-85
2022/08/30 11:52:39;;;;;;;7.03;5.93;;;34.00;54.00;;;;;;5074720;28;20190;-82
2022/08/30 11:55:22;;;;;;;5.72;5.05;;;34.00;54.30;;;;;;5074436;28;20029;-80
2022/08/30 11:58:08;;;;;;;8.35;6.65;;;34.30;54.30;;;;;;5073518;28;20028;-88
2022/08/30 12:00:40;;;;;;;8.38;5.90;;;34.50;54.30;;;;;;5074637;28;20020;-92
2022/08/30 12:03:34;;;;;;;6.32;5.65;;;34.60;54.60;;;;;;5073936;28;20032;-93
2022/08/30 12:06:03;;;;;;;8.95;5.63;;;34.80;53.00;;;;;;5075900;28;20096;-88
2022/08/30 12:08:33;;;;;;;6.07;5.47;;;34.90;53.30;;;;;;5074688;28;20086;-89
2022/08/30 12:11:13;;;;;;;6.25;5.60;;;34.90;52.90;;;;;;5074466;28;20029;-87
2022/08/30 12:13:42;;;;;;;7.20;6.35;;;34.80;53.30;;;;;;5073472;28;20111;-89
2022/08/30 12:16:33;;;;;;;7.68;6.65;;;34.80;53.50;;;;;;5081204;28;20044;-84
2022/08/30 12:19:14;;;;;;;7.30;6.10;;;34.80;54.80;;;;;;5094862;28;20031;-85
2022/08/30 12:21:40;;;;;;;7.05;6.18;;;34.70;54.30;;;;;;5076893;28;20056;-88
2022/08/30 12:24:20;;;;;;;8.35;6.03;;;34.90;54.00;;;;;;5098272;28;20062;-80
2022/08/30 12:26:48;;;;;;;6.90;5.93;;;35.10;53.40;;;;;;5077644;28;20028;-79
2022/08/30 12:29:26;;;;;;;6.32;5.72;;;35.30;53.50;;;;;;5094243;28;20032;-85
2022/08/30 12:31:55;;;;;;;6.43;5.35;;;35.20;52.70;;;;;;5093984;28;20032;-88
2022/08/30 12:34:51;;;;;;;7.07;5.60;;;34.70;52.00;;;;;;5096464;28;20020;-90
2022/08/30 12:37:23;;;;;;;7.07;5.68;;;34.70;54.00;;;;;;5094182;28;20119;-82
2022/08/30 12:40:02;;;;;;;6.47;5.80;;;34.90;53.70;;;;;;5094265;28;20016;-91
2022/08/30 12:42:31;;;;;;;8.73;5.65;;;35.00;52.50;;;;;;5076344;28;20374;-87
2022/08/30 12:45:01;;;;;;;7.07;5.75;;;35.10;52.20;;;;;;5080283;28;20027;-88
2022/08/30 12:47:36;;;;;;;;;;;35.10;52.70;;;;;;5094777;28;20390;-86
2022/08/30 12:50:04;;;;;;;7.55;5.43;;;35.20;53.20;;;;;;5094626;28;20300;-87
2022/08/30 12:52:38;;;;;;;8.38;5.85;;;35.30;53.30;;;;;;5094306;28;20046;-94
2022/08/30 12:55:22;;;;;;;7.80;5.45;;;35.20;53.50;;;;;;5075183;28;20106;-82
2022/08/30 12:58:10;;;;;;;6.40;5.30;;;34.90;53.00;;;;;;5075432;28;20138;-83